createdAt,value
2022-10-17T00:02:02.758Z,9.35
2022-10-17T00:11:58.362Z,4.50
2022-10-17T00:15:42.053Z,5.78
2022-10-17T00:25:06.325Z,5.18
2022-10-17T00:38:54.179Z,4.53
2022-10-17T03:05:47.362Z,4.90
2022-10-17T04:16:58.326Z,5.00
2022-10-17T04:20:48.637Z,3.50
2022-10-17T04:23:57.847Z,2.88
2022-10-17T04:30:21.156Z,3.83
2022-10-17T04:44:22.529Z,5.13
2022-10-17T04:48:12.287Z,4.68
2022-10-17T05:04:33.399Z,4.88
2022-10-17T05:08:01.795Z,2.70
2022-10-17T05:11:34.771Z,8.07
2022-10-17T05:17:44.326Z,6.10
2022-10-17T05:20:34.789Z,4.85
2022-10-17T05:23:27.911Z,4.10
2022-10-17T05:36:46.555Z,3.70
2022-10-17T05:49:14.953Z,3.92
2022-10-17T05:57:31.100Z,4.95
2022-10-17T06:05:38.790Z,3.75
2022-10-17T06:19:20.019Z,3.85
2022-10-17T06:38:03.839Z,5.47
2022-10-17T06:48:54.819Z,3.85
2022-10-17T06:56:32.046Z,6.05
2022-10-17T08:34:40.827Z,4.82
2022-10-17T08:53:34.542Z,4.82
2022-10-17T09:08:41.893Z,8.13
2022-10-17T09:19:18.832Z,6.00
2022-10-17T09:22:53.445Z,5.95
2022-10-17T09:26:30.557Z,4.22
2022-10-17T09:34:27.474Z,4.40
2022-10-17T10:01:42.020Z,5.57
2022-10-17T10:04:59.744Z,4.28
2022-10-17T10:22:24.328Z,5.38
2022-10-17T10:26:27.497Z,6.35
2022-10-17T10:30:08.151Z,5.80
2022-10-17T10:52:17.107Z,6.13
2022-10-17T11:45:56.443Z,5.13
2022-10-17T12:02:20.855Z,8.18
2022-10-17T12:16:57.642Z,11.07
2022-10-17T12:23:43.765Z,9.05
2022-10-17T12:26:49.645Z,9.32
2022-10-17T12:30:09.289Z,8.68
2022-10-17T12:36:44.866Z,5.60
2022-10-17T12:39:17.535Z,6.15
2022-10-17T12:41:46.436Z,9.98
2022-10-17T12:44:19.926Z,6.95
2022-10-17T12:46:50.963Z,9.70
2022-10-17T12:49:45.481Z,6.45
2022-10-17T12:52:22.239Z,6.82
2022-10-17T12:55:14.889Z,8.20
2022-10-17T12:57:59.402Z,6.15
2022-10-17T13:00:36.191Z,8.65
2022-10-17T13:03:31.365Z,9.23
2022-10-17T13:09:05.685Z,12.43
2022-10-17T13:11:35.744Z,7.85
2022-10-17T13:14:15.204Z,7.88
2022-10-17T13:17:27.562Z,7.40
2022-10-17T13:19:55.725Z,10.77
2022-10-17T13:22:29.186Z,12.52
2022-10-17T13:25:18.254Z,7.68
2022-10-17T13:31:04.984Z,10.70
2022-10-17T13:33:39.266Z,7.55
2022-10-17T13:36:19.624Z,9.13
2022-10-17T13:38:47.136Z,10.57
2022-10-17T13:44:27.601Z,9.55
2022-10-17T13:46:55.031Z,8.48
2022-10-17T13:49:44.242Z,11.40
2022-10-17T13:52:24.770Z,12.65
2022-10-17T13:54:54.233Z,11.25
2022-10-17T13:57:35.446Z,11.80
2022-10-17T14:00:11.396Z,10.38
2022-10-17T14:03:05.064Z,10.40
2022-10-17T14:05:33.653Z,11.35
2022-10-17T14:08:13.366Z,13.40
2022-10-17T14:10:43.900Z,11.35
2022-10-17T14:13:27.818Z,13.13
2022-10-17T14:15:56.939Z,12.18
2022-10-17T14:18:36.176Z,12.32
2022-10-17T14:24:15.717Z,8.32
2022-10-17T14:26:52.409Z,9.40
2022-10-17T14:35:41.236Z,12.35
2022-10-17T14:38:15.021Z,12.38
2022-10-17T14:40:50.658Z,12.80
2022-10-17T14:43:25.156Z,9.68
2022-10-17T14:45:53.018Z,9.98
2022-10-17T14:48:23.772Z,8.93
2022-10-17T14:51:11.504Z,12.10
2022-10-17T14:53:39.787Z,9.30
2022-10-17T14:56:53.039Z,10.27
2022-10-17T14:59:54.150Z,8.90
2022-10-17T15:02:25.296Z,11.40
2022-10-17T15:04:57.110Z,9.20
2022-10-17T15:10:28.339Z,13.95
2022-10-17T15:12:59.386Z,10.88
2022-10-17T15:15:43.419Z,8.45
2022-10-17T15:18:37.571Z,12.70
2022-10-17T15:21:33.715Z,12.52
2022-10-17T15:27:03.425Z,10.60
2022-10-17T15:29:31.007Z,12.18
2022-10-17T15:31:58.938Z,10.48
2022-10-17T15:34:31.988Z,12.05
2022-10-17T15:36:59.162Z,12.70
2022-10-17T15:39:27.021Z,13.15
2022-10-17T15:41:59.900Z,11.35
2022-10-17T15:44:27.089Z,10.68
2022-10-17T15:47:04.540Z,13.75
2022-10-17T15:50:02.323Z,10.70
2022-10-17T15:52:29.108Z,9.63
2022-10-17T15:54:59.556Z,11.43
2022-10-17T16:00:32.020Z,9.98
2022-10-17T16:02:58.961Z,12.63
2022-10-17T16:08:19.026Z,9.60
2022-10-17T16:10:47.013Z,11.48
2022-10-17T16:13:25.894Z,9.20
2022-10-17T16:15:53.025Z,8.00
2022-10-17T16:18:21.163Z,10.25
2022-10-17T16:20:54.033Z,8.10
2022-10-17T16:23:21.161Z,10.68
2022-10-17T16:25:53.969Z,10.45
2022-10-17T16:28:20.941Z,10.50
2022-10-17T16:30:54.294Z,10.15
2022-10-17T16:33:20.958Z,10.18
2022-10-17T16:35:49.389Z,10.18
2022-10-17T16:38:16.944Z,11.35
2022-10-17T16:40:45.082Z,9.73
2022-10-17T16:43:13.283Z,9.25
2022-10-17T16:45:41.383Z,11.02
2022-10-17T16:48:09.626Z,11.65
2022-10-17T16:50:39.631Z,9.52
2022-10-17T16:53:07.384Z,13.55
2022-10-17T16:56:06.941Z,9.32
2022-10-17T16:58:35.012Z,11.73
2022-10-17T17:01:11.110Z,10.73
2022-10-17T17:03:40.815Z,16.67
2022-10-17T17:06:12.940Z,11.68
2022-10-17T17:08:42.401Z,14.32
2022-10-17T17:11:17.373Z,13.02
2022-10-17T17:13:47.347Z,10.15
2022-10-17T17:16:17.887Z,9.68
2022-10-17T17:19:13.949Z,15.23
2022-10-17T17:22:16.552Z,15.30
2022-10-17T17:24:45.360Z,11.30
2022-10-17T17:27:13.686Z,11.98
2022-10-17T17:29:40.973Z,11.68
2022-10-17T17:32:10.594Z,16.65
2022-10-17T17:34:44.087Z,13.25
2022-10-17T17:37:16.369Z,13.38
2022-10-17T17:39:45.068Z,11.88
2022-10-17T17:42:13.007Z,12.60
2022-10-17T17:44:41.044Z,11.27
2022-10-17T17:47:08.974Z,13.75
2022-10-17T17:50:02.335Z,11.32
2022-10-17T17:52:29.865Z,14.25
2022-10-17T17:55:03.069Z,15.88
2022-10-17T17:57:59.058Z,13.13
2022-10-17T18:00:27.537Z,14.40
2022-10-17T18:03:00.025Z,14.95
2022-10-17T18:05:27.828Z,17.20
2022-10-17T18:07:55.081Z,15.30
2022-10-17T18:10:49.191Z,15.73
2022-10-17T18:13:17.033Z,15.27
2022-10-17T18:15:45.478Z,15.48
2022-10-17T18:18:13.246Z,15.75
2022-10-17T18:20:46.971Z,17.15
2022-10-17T18:23:16.217Z,16.75
2022-10-17T18:25:58.002Z,17.83
2022-10-17T18:28:25.191Z,17.98
2022-10-17T18:30:53.220Z,16.55
2022-10-17T18:33:21.041Z,15.43
2022-10-17T18:35:48.996Z,19.55
2022-10-17T18:38:16.993Z,15.68
2022-10-17T18:40:47.283Z,14.30
2022-10-17T18:43:24.282Z,18.23
2022-10-17T18:45:51.031Z,18.50
2022-10-17T18:48:19.012Z,15.15
2022-10-17T18:50:47.036Z,18.13
2022-10-17T18:53:18.972Z,17.98
2022-10-17T18:55:50.898Z,18.35
2022-10-17T18:58:21.249Z,20.65
2022-10-17T19:00:55.168Z,13.93
2022-10-17T19:03:23.007Z,18.27
2022-10-17T19:05:51.100Z,17.45
2022-10-17T19:08:18.977Z,19.55
2022-10-17T19:10:46.948Z,17.88
2022-10-17T19:13:19.335Z,17.92
2022-10-17T19:15:55.081Z,20.45
2022-10-17T19:18:23.011Z,16.50
2022-10-17T19:20:52.961Z,15.10
2022-10-17T19:23:20.993Z,18.27
2022-10-17T19:25:48.929Z,22.63
2022-10-17T19:28:16.958Z,19.38
2022-10-17T19:30:44.918Z,15.45
2022-10-17T19:33:13.003Z,22.85
2022-10-17T19:35:41.302Z,14.77
2022-10-17T19:38:09.181Z,12.40
2022-10-17T19:40:47.703Z,13.23
2022-10-17T19:43:17.279Z,11.95
2022-10-17T19:46:01.533Z,11.45
2022-10-17T19:48:35.435Z,10.88
2022-10-17T19:51:04.135Z,13.88
2022-10-17T19:53:31.270Z,9.07
2022-10-17T19:56:03.627Z,12.30
2022-10-17T19:58:32.810Z,9.40
2022-10-17T20:01:05.612Z,9.32
2022-10-17T20:03:33.014Z,11.80
2022-10-17T20:06:01.141Z,11.02
2022-10-17T20:08:54.558Z,7.03
2022-10-17T20:11:30.883Z,7.03
2022-10-17T20:14:00.160Z,6.10
2022-10-17T20:16:31.027Z,9.75
2022-10-17T20:19:04.530Z,8.95
2022-10-17T20:21:35.150Z,9.57
2022-10-17T20:24:05.375Z,7.10
2022-10-17T20:26:39.025Z,6.25
2022-10-17T20:29:17.535Z,9.07
2022-10-17T20:31:46.308Z,8.52
2022-10-17T20:34:15.886Z,10.05
2022-10-17T20:36:43.325Z,5.38
2022-10-17T20:39:13.581Z,5.82
2022-10-17T20:41:43.903Z,6.45
2022-10-17T20:44:16.988Z,8.38
2022-10-17T20:47:00.674Z,7.93
2022-10-17T20:49:44.059Z,6.18
2022-10-17T20:52:11.127Z,8.32
2022-10-17T20:54:39.161Z,6.25
2022-10-17T20:57:07.152Z,7.93
2022-10-17T20:59:36.045Z,7.65
2022-10-17T21:02:29.012Z,6.80
2022-10-17T21:04:56.954Z,6.15
2022-10-17T21:07:29.283Z,6.82
2022-10-17T21:10:00.334Z,9.50
2022-10-17T21:12:49.934Z,4.25
2022-10-17T21:15:47.196Z,6.05
2022-10-17T21:18:15.429Z,6.13
2022-10-17T21:20:43.180Z,6.25
2022-10-17T21:23:10.938Z,5.35
2022-10-17T21:25:43.030Z,4.75
2022-10-17T21:28:10.979Z,6.95
2022-10-17T21:30:38.951Z,9.35
2022-10-17T21:33:06.970Z,6.88
2022-10-17T21:35:35.023Z,5.20
2022-10-17T21:38:07.001Z,3.40
2022-10-17T21:40:35.067Z,7.18
2022-10-17T21:43:07.981Z,2.92
2022-10-17T21:45:36.120Z,6.57
2022-10-17T21:48:18.328Z,4.75
2022-10-17T21:50:44.969Z,2.92
2022-10-17T21:53:12.979Z,5.50
2022-10-17T21:55:40.994Z,4.15
2022-10-17T21:58:09.003Z,7.18
2022-10-17T22:00:36.975Z,5.63
2022-10-17T22:03:10.893Z,7.38
2022-10-17T22:05:39.041Z,7.63
2022-10-17T22:08:07.333Z,5.28
2022-10-17T22:10:44.380Z,4.53
2022-10-17T22:13:11.242Z,5.28
2022-10-17T22:16:11.260Z,6.78
2022-10-17T22:18:39.274Z,8.30
2022-10-17T22:21:19.638Z,7.07
2022-10-17T22:26:41.570Z,7.95
2022-10-17T22:29:09.617Z,11.15
2022-10-17T22:31:37.783Z,12.35
2022-10-17T22:34:06.433Z,8.48
2022-10-17T22:36:35.805Z,8.95
2022-10-17T22:39:04.135Z,10.40
2022-10-17T22:41:31.129Z,8.20
2022-10-17T22:43:59.135Z,8.32
2022-10-17T22:46:27.278Z,10.77
2022-10-17T22:48:54.960Z,7.78
2022-10-17T22:53:51.054Z,11.25
2022-10-17T22:56:20.714Z,13.73
2022-10-17T22:58:49.360Z,8.75
2022-10-17T23:01:41.209Z,8.65
2022-10-17T23:04:38.387Z,9.88
2022-10-17T23:07:11.121Z,14.90
2022-10-17T23:10:05.413Z,11.73
2022-10-17T23:12:33.144Z,10.07
2022-10-17T23:15:00.982Z,11.60
2022-10-17T23:17:29.010Z,10.55
2022-10-17T23:20:01.964Z,9.13
2022-10-17T23:25:27.223Z,9.65
2022-10-17T23:27:55.360Z,14.65
2022-10-17T23:30:27.149Z,9.60
2022-10-17T23:33:04.094Z,11.25
2022-10-17T23:35:31.497Z,18.23
2022-10-17T23:37:59.036Z,17.88
2022-10-17T23:40:27.063Z,13.77
2022-10-17T23:42:55.021Z,11.77
2022-10-17T23:45:23.068Z,13.27
2022-10-17T23:47:51.004Z,11.55
2022-10-17T23:50:45.088Z,10.65
2022-10-17T23:53:17.950Z,12.57
2022-10-17T23:55:45.154Z,15.38
2022-10-17T23:58:12.974Z,13.32
